createdAt,value
2019-02-02T00:02:03.616Z,80.60
2019-02-02T00:04:34.043Z,79.55
2019-02-02T00:07:04.582Z,84.22
2019-02-02T00:09:34.960Z,79.35
2019-02-02T00:12:06.271Z,86.15
2019-02-02T00:14:38.480Z,83.82
2019-02-02T00:17:10.526Z,89.87
2019-02-02T00:19:40.903Z,83.87
2019-02-02T00:22:11.423Z,87.20
2019-02-02T00:24:42.092Z,79.87
2019-02-02T00:27:12.470Z,78.97
2019-02-02T00:29:42.930Z,81.47
2019-02-02T00:32:14.973Z,77.53
2019-02-02T00:34:45.354Z,86.30
2019-02-02T00:37:15.690Z,75.95
2019-02-02T00:39:46.177Z,80.38
2019-02-02T00:42:16.663Z,73.10
2019-02-02T00:44:47.028Z,77.15
2019-02-02T00:47:17.829Z,80.15
2019-02-02T00:49:48.302Z,80.53
2019-02-02T00:52:18.658Z,76.25
2019-02-02T00:54:49.022Z,72.22
2019-02-02T00:57:19.348Z,76.95
2019-02-02T00:59:49.744Z,81.02
2019-02-02T01:02:20.146Z,85.10
2019-02-02T01:04:50.576Z,80.35
2019-02-02T01:07:20.965Z,86.10
2019-02-02T01:09:51.530Z,75.10
2019-02-02T01:12:21.909Z,82.65
2019-02-02T01:14:52.690Z,81.40
2019-02-02T01:17:23.101Z,76.07
2019-02-02T01:19:53.810Z,83.87
2019-02-02T01:22:24.235Z,83.35
2019-02-02T01:24:54.562Z,80.42
2019-02-02T01:27:26.182Z,80.55
2019-02-02T01:29:56.659Z,81.97
2019-02-02T01:32:27.294Z,85.70
2019-02-02T01:34:57.688Z,79.60
2019-02-02T01:37:28.209Z,79.62
2019-02-02T01:39:58.801Z,82.05
2019-02-02T01:42:29.632Z,86.63
2019-02-02T01:44:59.966Z,80.15
2019-02-02T01:47:30.323Z,82.80
2019-02-02T01:50:02.406Z,81.92
2019-02-02T01:52:32.951Z,85.00
2019-02-02T01:55:03.363Z,89.20
2019-02-02T01:57:34.736Z,85.17
2019-02-02T02:00:06.723Z,85.87
2019-02-02T02:02:37.131Z,86.08
2019-02-02T02:05:07.986Z,87.82
2019-02-02T02:07:38.452Z,93.10
2019-02-02T02:10:10.275Z,89.10
2019-02-02T02:12:41.406Z,86.75
2019-02-02T02:15:15.047Z,84.77
2019-02-02T02:17:46.969Z,83.10
2019-02-02T02:20:18.331Z,82.17
2019-02-02T02:22:49.051Z,87.27
2019-02-02T02:25:20.278Z,81.53
2019-02-02T02:27:50.903Z,81.60
2019-02-02T02:30:22.687Z,84.70
2019-02-02T02:32:53.846Z,82.85
2019-02-02T02:35:24.191Z,82.33
2019-02-02T02:37:54.654Z,82.27
2019-02-02T02:40:25.188Z,84.00
2019-02-02T02:42:55.933Z,82.42
2019-02-02T02:45:27.898Z,81.55
2019-02-02T02:47:58.223Z,82.17
2019-02-02T02:50:28.532Z,86.72
2019-02-02T02:52:58.936Z,88.35
2019-02-02T02:55:29.317Z,86.40
2019-02-02T02:57:59.691Z,87.10
2019-02-02T03:00:30.242Z,80.70
2019-02-02T03:03:00.719Z,86.00
2019-02-02T03:05:31.213Z,84.35
2019-02-02T03:08:01.613Z,86.72
2019-02-02T03:10:32.228Z,87.10
2019-02-02T03:13:02.663Z,87.37
2019-02-02T03:15:33.984Z,89.83
2019-02-02T03:18:04.504Z,87.00
2019-02-02T03:20:35.860Z,88.78
2019-02-02T03:23:06.282Z,88.45
2019-02-02T03:25:36.745Z,95.15
2019-02-02T03:28:07.952Z,90.65
2019-02-02T03:30:38.406Z,90.03
2019-02-02T03:33:09.120Z,89.35
2019-02-02T03:35:39.614Z,85.12
2019-02-02T03:38:10.126Z,83.37
2019-02-02T03:40:40.624Z,87.55
2019-02-02T03:43:11.357Z,88.40
2019-02-02T03:45:41.749Z,84.30
2019-02-02T03:48:12.404Z,83.97
2019-02-02T03:50:42.841Z,84.97
2019-02-02T03:53:13.274Z,87.60
2019-02-02T03:55:44.748Z,91.37
2019-02-02T03:58:15.093Z,83.75
2019-02-02T04:00:45.596Z,89.77
2019-02-02T04:03:15.951Z,91.72
2019-02-02T04:05:46.319Z,85.95
2019-02-02T04:08:16.774Z,96.15
2019-02-02T04:10:47.165Z,100.12
2019-02-02T04:13:17.554Z,98.50
2019-02-02T04:15:48.972Z,104.50
2019-02-02T04:18:19.367Z,101.30
2019-02-02T04:20:50.837Z,92.25
2019-02-02T04:23:21.287Z,98.92
2019-02-02T04:25:51.738Z,92.80
2019-02-02T04:28:23.811Z,95.38
2019-02-02T04:30:54.223Z,97.75
2019-02-02T04:33:24.667Z,98.42
2019-02-02T04:35:55.243Z,100.67
2019-02-02T04:38:25.668Z,99.03
2019-02-02T04:40:56.087Z,102.02
2019-02-02T04:43:26.603Z,98.17
2019-02-02T04:45:57.040Z,95.87
2019-02-02T04:48:27.478Z,90.00
2019-02-02T04:50:57.832Z,91.57
2019-02-02T04:53:28.158Z,93.62
2019-02-02T04:55:58.587Z,94.72
2019-02-02T04:58:30.830Z,92.05
2019-02-02T05:01:01.350Z,96.32
2019-02-02T05:03:31.691Z,95.53
2019-02-02T05:06:02.049Z,92.25
2019-02-02T05:08:32.519Z,89.60
2019-02-02T05:11:02.946Z,90.03
2019-02-02T05:13:33.606Z,97.97
2019-02-02T05:16:05.609Z,92.35
2019-02-02T05:18:36.299Z,93.30
2019-02-02T05:21:06.675Z,99.77
2019-02-02T05:23:37.103Z,94.47
2019-02-02T05:26:07.610Z,97.78
2019-02-02T05:28:38.131Z,93.35
2019-02-02T05:31:08.884Z,101.15
2019-02-02T05:33:40.835Z,106.30
2019-02-02T05:36:11.223Z,98.42
2019-02-02T05:38:41.625Z,106.17
2019-02-02T05:41:12.082Z,103.55
2019-02-02T05:43:42.570Z,113.83
2019-02-02T05:46:12.955Z,116.28
2019-02-02T05:48:43.298Z,119.13
2019-02-02T05:51:13.733Z,107.70
2019-02-02T05:53:44.198Z,118.97
2019-02-02T05:56:14.627Z,119.00
2019-02-02T05:58:45.010Z,119.30
2019-02-02T06:01:18.751Z,117.28
2019-02-02T06:03:49.208Z,114.90
2019-02-02T06:06:19.577Z,109.72
2019-02-02T06:08:50.023Z,113.30
2019-02-02T06:11:20.487Z,109.27
2019-02-02T06:13:50.842Z,104.40
2019-02-02T06:16:22.084Z,112.00
2019-02-02T06:18:52.437Z,108.40
2019-02-02T06:21:22.930Z,106.27
2019-02-02T06:23:54.375Z,99.65
2019-02-02T06:26:25.469Z,101.10
2019-02-02T06:28:55.858Z,101.10
2019-02-02T06:31:26.430Z,92.35
2019-02-02T06:33:57.215Z,99.28
2019-02-02T06:36:28.319Z,95.03
2019-02-02T06:38:58.674Z,95.50
2019-02-02T06:41:28.993Z,98.45
2019-02-02T06:43:59.327Z,91.05
2019-02-02T06:46:30.844Z,92.10
2019-02-02T06:49:01.673Z,87.53
2019-02-02T06:51:32.314Z,91.17
2019-02-02T06:54:02.703Z,88.30
2019-02-02T06:56:33.113Z,90.25
2019-02-02T06:59:04.610Z,87.40
2019-02-02T07:01:35.171Z,89.42
2019-02-02T07:04:06.035Z,85.70
2019-02-02T07:06:36.441Z,86.80
2019-02-02T07:09:08.528Z,89.45
2019-02-02T07:11:39.021Z,87.57
2019-02-02T07:14:10.538Z,87.67
2019-02-02T07:16:41.718Z,90.53
2019-02-02T07:19:12.521Z,90.95
2019-02-02T07:21:42.879Z,91.97
2019-02-02T07:24:13.216Z,88.95
2019-02-02T07:26:43.455Z,89.03
2019-02-02T07:29:14.814Z,87.70
2019-02-02T07:31:47.941Z,85.87
2019-02-02T07:34:18.285Z,86.15
2019-02-02T07:36:48.753Z,82.90
2019-02-02T07:39:19.185Z,92.37
2019-02-02T07:41:49.595Z,87.45
2019-02-02T07:44:20.187Z,83.85
2019-02-02T07:46:50.603Z,91.65
2019-02-02T07:49:21.018Z,91.87
2019-02-02T07:51:51.466Z,85.95
2019-02-02T07:54:22.188Z,85.80
2019-02-02T07:56:52.919Z,82.82
2019-02-02T07:59:23.360Z,85.07
2019-02-02T08:01:53.696Z,79.62
2019-02-02T08:04:24.162Z,83.07
2019-02-02T08:06:55.710Z,81.53
2019-02-02T08:09:26.155Z,80.35
2019-02-02T08:11:56.926Z,84.83
2019-02-02T08:14:27.385Z,79.65
2019-02-02T08:16:58.067Z,83.35
2019-02-02T08:19:28.458Z,81.85
2019-02-02T08:21:58.979Z,77.40
2019-02-02T08:24:32.189Z,78.20
2019-02-02T08:27:03.480Z,83.50
2019-02-02T08:29:33.803Z,85.75
2019-02-02T08:32:04.667Z,79.10
2019-02-02T08:34:35.003Z,77.08
2019-02-02T08:37:05.527Z,78.92
2019-02-02T08:39:36.440Z,72.17
2019-02-02T08:42:06.755Z,75.70
2019-02-02T08:44:37.794Z,75.28
2019-02-02T08:47:09.720Z,77.97
2019-02-02T08:49:40.509Z,79.77
2019-02-02T08:52:10.899Z,73.42
2019-02-02T08:54:41.448Z,76.28
2019-02-02T08:57:11.822Z,79.75
2019-02-02T08:59:42.351Z,76.50
2019-02-02T09:02:13.011Z,75.85
2019-02-02T09:04:43.426Z,74.00
2019-02-02T09:07:15.779Z,76.33
2019-02-02T09:09:48.402Z,84.10
2019-02-02T09:12:18.852Z,78.87
2019-02-02T09:14:50.203Z,73.55
2019-02-02T09:17:22.137Z,74.20
2019-02-02T09:19:52.534Z,72.58
2019-02-02T09:22:23.073Z,71.15
2019-02-02T09:24:53.487Z,73.10
2019-02-02T09:27:23.891Z,76.30
2019-02-02T09:29:57.200Z,73.00
2019-02-02T09:32:27.775Z,73.92
2019-02-02T09:34:58.181Z,74.90
2019-02-02T09:37:28.636Z,71.15
2019-02-02T09:39:59.670Z,66.87
2019-02-02T09:42:30.025Z,72.67
2019-02-02T09:45:00.794Z,72.42
2019-02-02T09:47:31.227Z,70.20
2019-02-02T09:50:01.673Z,74.53
2019-02-02T09:52:32.018Z,71.35
2019-02-02T09:55:05.469Z,70.25
2019-02-02T09:57:36.933Z,76.42
2019-02-02T10:00:11.339Z,72.22
2019-02-02T10:02:45.769Z,69.30
2019-02-02T10:05:19.199Z,76.55
2019-02-02T10:07:49.870Z,70.60
2019-02-02T10:10:22.647Z,71.17
2019-02-02T10:12:53.350Z,72.58
2019-02-02T10:15:24.451Z,66.72
2019-02-02T10:17:56.299Z,70.78
2019-02-02T10:20:28.027Z,73.33
2019-02-02T10:23:02.403Z,67.47
2019-02-02T10:25:33.697Z,71.95
2019-02-02T10:28:05.313Z,72.87
2019-02-02T10:30:41.155Z,74.53
2019-02-02T10:33:13.957Z,72.05
2019-02-02T10:35:44.363Z,67.17
2019-02-02T10:38:14.879Z,68.47
2019-02-02T10:40:45.495Z,64.70
2019-02-02T10:43:16.404Z,67.35
2019-02-02T10:45:46.827Z,64.50
2019-02-02T10:48:17.319Z,65.55
2019-02-02T10:50:47.631Z,59.53
2019-02-02T10:53:18.347Z,63.55
2019-02-02T10:55:48.826Z,61.13
2019-02-02T10:58:19.292Z,58.25
2019-02-02T11:00:49.749Z,56.70
2019-02-02T11:03:20.204Z,56.45
2019-02-02T11:05:50.931Z,53.45
2019-02-02T11:08:22.200Z,52.98
2019-02-02T11:10:52.805Z,46.42
2019-02-02T11:13:25.004Z,39.48
2019-02-02T11:15:55.900Z,42.23
2019-02-02T11:18:26.911Z,44.38
2019-02-02T11:20:57.329Z,40.60
2019-02-02T11:23:27.951Z,43.15
2019-02-02T11:25:58.383Z,37.40
2019-02-02T11:28:28.816Z,35.90
2019-02-02T11:30:59.415Z,35.52
2019-02-02T11:33:30.642Z,34.03
2019-02-02T11:36:01.200Z,32.38
2019-02-02T11:38:31.624Z,32.30
2019-02-02T11:41:02.156Z,31.05
2019-02-02T11:43:32.544Z,30.92
2019-02-02T11:46:03.019Z,33.58
2019-02-02T11:48:33.341Z,31.87
2019-02-02T11:51:03.835Z,36.08
2019-02-02T11:53:37.211Z,35.80
2019-02-02T11:56:06.616Z,39.42
2019-02-02T11:58:37.137Z,40.25
2019-02-02T12:01:07.659Z,35.88
2019-02-02T12:03:38.063Z,41.00
2019-02-02T12:06:08.634Z,41.90
2019-02-02T12:08:39.053Z,41.73
2019-02-02T12:11:09.501Z,42.80
2019-02-02T12:13:39.807Z,43.28
2019-02-02T12:16:10.212Z,41.60
2019-02-02T12:18:42.100Z,41.35
2019-02-02T12:21:12.826Z,39.65
2019-02-02T12:23:43.242Z,42.60
2019-02-02T12:26:13.671Z,41.68
2019-02-02T12:28:44.049Z,40.75
2019-02-02T12:31:14.396Z,40.08
2019-02-02T12:33:44.998Z,40.43
2019-02-02T12:36:15.419Z,36.85
2019-02-02T12:38:45.763Z,41.40
2019-02-02T12:41:16.163Z,37.10
2019-02-02T12:43:48.043Z,34.80
2019-02-02T12:46:23.636Z,38.90
2019-02-02T12:49:06.183Z,38.73
2019-02-02T12:51:36.583Z,32.58
2019-02-02T12:54:10.013Z,31.73
2019-02-02T12:56:41.959Z,31.23
2019-02-02T12:59:16.617Z,27.60
2019-02-02T13:01:46.952Z,28.07
2019-02-02T13:04:17.394Z,23.83
2019-02-02T13:06:48.740Z,24.05
2019-02-02T13:09:20.183Z,24.05
2019-02-02T13:11:50.852Z,20.08
2019-02-02T13:14:21.234Z,19.23
2019-02-02T13:16:51.703Z,18.90
2019-02-02T13:19:22.527Z,17.75
2019-02-02T13:21:53.593Z,23.25
2019-02-02T13:24:24.731Z,20.10
2019-02-02T13:26:55.214Z,19.82
2019-02-02T13:29:28.710Z,22.00
2019-02-02T13:32:01.083Z,19.00
2019-02-02T13:34:32.288Z,21.20
2019-02-02T13:37:02.747Z,21.12
2019-02-02T13:39:37.273Z,21.87
2019-02-02T13:42:07.674Z,23.92
2019-02-02T13:44:43.042Z,24.12
2019-02-02T13:47:16.051Z,26.23
2019-02-02T13:49:46.394Z,24.85
2019-02-02T13:52:16.755Z,24.72
2019-02-02T13:54:47.038Z,28.65
2019-02-02T13:57:17.627Z,27.70
2019-02-02T13:59:47.987Z,30.10
2019-02-02T14:02:18.367Z,33.23
2019-02-02T14:04:48.719Z,32.00
2019-02-02T14:07:19.410Z,31.93
2019-02-02T14:09:49.702Z,27.95
2019-02-02T14:12:20.055Z,30.23
2019-02-02T14:14:50.351Z,29.70
2019-02-02T14:17:20.693Z,32.35
2019-02-02T14:19:51.019Z,31.12
2019-02-02T14:22:22.470Z,29.15
2019-02-02T14:24:52.851Z,31.77
2019-02-02T14:27:23.213Z,32.13
2019-02-02T14:29:53.516Z,30.52
2019-02-02T14:32:23.863Z,33.00
2019-02-02T14:34:54.255Z,29.70
2019-02-02T14:37:24.600Z,30.97
2019-02-02T14:39:55.470Z,31.87
2019-02-02T14:42:25.751Z,36.30
2019-02-02T14:44:56.103Z,34.50
2019-02-02T14:47:27.132Z,41.33
2019-02-02T14:49:57.459Z,38.95
2019-02-02T14:52:27.771Z,41.00
2019-02-02T14:54:58.094Z,43.85
2019-02-02T14:57:28.419Z,46.73
2019-02-02T14:59:58.774Z,43.48
2019-02-02T15:02:29.180Z,44.93
2019-02-02T15:04:59.490Z,44.10
2019-02-02T15:07:30.740Z,43.63
2019-02-02T15:10:01.083Z,47.30
2019-02-02T15:12:37.065Z,48.23
2019-02-02T15:15:09.295Z,52.62
2019-02-02T15:17:39.739Z,48.28
2019-02-02T15:20:16.889Z,56.02
2019-02-02T15:22:47.659Z,51.13
2019-02-02T15:25:17.970Z,52.38
2019-02-02T15:27:49.411Z,50.85
2019-02-02T15:30:20.631Z,53.13
2019-02-02T15:32:51.051Z,51.50
2019-02-02T15:35:21.493Z,52.17
2019-02-02T15:37:51.822Z,51.48
2019-02-02T15:40:23.408Z,52.53
2019-02-02T15:42:53.815Z,54.53
2019-02-02T15:45:25.264Z,60.30
2019-02-02T15:48:01.936Z,61.68
2019-02-02T15:50:32.348Z,58.48
2019-02-02T15:53:02.683Z,59.00
2019-02-02T15:55:33.014Z,64.12
2019-02-02T15:58:04.422Z,62.78
2019-02-02T16:00:36.898Z,57.27
2019-02-02T16:03:07.372Z,50.45
2019-02-02T16:05:37.974Z,54.23
2019-02-02T16:08:15.631Z,53.95
2019-02-02T16:10:46.058Z,49.73
2019-02-02T16:13:16.319Z,49.67
2019-02-02T16:15:46.659Z,53.73
2019-02-02T16:18:17.035Z,56.65
2019-02-02T16:20:47.410Z,55.38
2019-02-02T16:23:17.736Z,57.83
2019-02-02T16:25:48.068Z,53.65
2019-02-02T16:28:18.392Z,50.80
2019-02-02T16:30:48.733Z,58.20
2019-02-02T16:33:19.059Z,59.50
2019-02-02T16:35:49.666Z,63.98
2019-02-02T16:38:20.000Z,66.37
2019-02-02T16:40:52.672Z,59.58
2019-02-02T16:43:23.076Z,61.45
2019-02-02T16:45:53.408Z,60.25
2019-02-02T16:48:24.561Z,71.70
2019-02-02T16:50:56.887Z,81.67
2019-02-02T16:53:27.898Z,74.87
2019-02-02T16:55:58.445Z,67.22
2019-02-02T16:58:28.799Z,64.53
2019-02-02T17:00:59.593Z,70.65
2019-02-02T17:03:30.115Z,68.35
2019-02-02T17:06:00.487Z,68.55
2019-02-02T17:08:30.942Z,67.92
2019-02-02T17:11:01.708Z,67.27
2019-02-02T17:13:32.755Z,78.17
2019-02-02T17:16:03.110Z,76.62
2019-02-02T17:18:34.770Z,80.25
2019-02-02T17:21:05.628Z,83.05
2019-02-02T17:23:37.149Z,74.65
2019-02-02T17:26:07.759Z,73.60
2019-02-02T17:28:38.347Z,86.22
2019-02-02T17:31:11.434Z,77.97
2019-02-02T17:33:41.088Z,110.03
2019-02-02T17:36:11.482Z,110.17
2019-02-02T17:38:41.839Z,127.65
2019-02-02T17:41:12.175Z,131.18
2019-02-02T17:43:42.635Z,312.80
2019-02-02T17:46:13.054Z,108.85
2019-02-02T17:48:43.840Z,164.95
2019-02-02T17:51:15.019Z,106.47
2019-02-02T17:53:45.315Z,141.55
2019-02-02T17:56:15.650Z,110.95
2019-02-02T17:58:46.910Z,121.22
2019-02-02T18:01:20.583Z,106.78
2019-02-02T18:03:51.037Z,111.45
2019-02-02T18:06:21.471Z,174.62
2019-02-02T18:08:51.891Z,123.25
2019-02-02T18:11:23.042Z,108.37
2019-02-02T18:13:53.499Z,146.50
2019-02-02T18:16:23.931Z,102.87
2019-02-02T18:18:54.620Z,109.72
2019-02-02T18:21:24.925Z,150.93
2019-02-02T18:23:55.284Z,111.83
2019-02-02T18:26:25.707Z,98.17
2019-02-02T18:28:56.171Z,92.78
2019-02-02T18:31:26.559Z,118.93
2019-02-02T18:33:56.951Z,119.22
2019-02-02T18:36:27.581Z,103.02
2019-02-02T18:38:57.950Z,99.85
2019-02-02T18:41:30.582Z,105.22
2019-02-02T18:44:01.083Z,98.42
2019-02-02T18:46:31.614Z,87.88
2019-02-02T18:49:02.084Z,89.50
2019-02-02T18:51:32.518Z,93.15
2019-02-02T18:54:02.795Z,92.05
2019-02-02T18:56:33.310Z,87.10
2019-02-02T18:59:04.727Z,88.20
2019-02-02T19:01:35.128Z,83.70
2019-02-02T19:04:05.610Z,90.97
2019-02-02T19:06:36.018Z,92.12
2019-02-02T19:09:08.943Z,93.05
2019-02-02T19:11:40.114Z,89.37
2019-02-02T19:14:10.437Z,89.07
2019-02-02T19:16:40.762Z,91.65
2019-02-02T19:19:11.103Z,95.47
2019-02-02T19:21:41.465Z,100.87
2019-02-02T19:24:11.886Z,103.62
2019-02-02T19:26:42.257Z,126.10
2019-02-02T19:29:12.587Z,111.37
2019-02-02T19:31:42.959Z,105.95
2019-02-02T19:34:13.374Z,101.22
2019-02-02T19:36:44.318Z,96.45
2019-02-02T19:39:14.702Z,148.65
2019-02-02T19:41:45.882Z,93.92
2019-02-02T19:44:16.270Z,94.85
2019-02-02T19:46:46.658Z,84.50
2019-02-02T19:49:17.125Z,86.53
2019-02-02T19:51:48.562Z,87.95
2019-02-02T19:54:19.300Z,84.30
2019-02-02T19:56:50.336Z,95.47
2019-02-02T19:59:20.692Z,87.65
2019-02-02T20:01:51.140Z,85.90
2019-02-02T20:04:22.638Z,88.62
2019-02-02T20:06:52.947Z,86.80
2019-02-02T20:09:23.294Z,86.32
2019-02-02T20:11:53.731Z,90.15
2019-02-02T20:14:24.075Z,87.15
2019-02-02T20:16:55.468Z,82.27
2019-02-02T20:19:25.780Z,81.32
2019-02-02T20:21:56.133Z,84.47
2019-02-02T20:24:26.470Z,83.35
2019-02-02T20:26:56.839Z,83.42
2019-02-02T20:29:27.307Z,78.52
2019-02-02T20:31:57.735Z,87.22
2019-02-02T20:34:28.062Z,84.80
2019-02-02T20:36:58.406Z,84.77
2019-02-02T20:39:28.751Z,88.10
2019-02-02T20:42:00.048Z,93.12
2019-02-02T20:44:30.559Z,88.85
2019-02-02T20:47:03.114Z,91.42
2019-02-02T20:49:33.323Z,88.85
2019-02-02T20:52:03.830Z,81.63
2019-02-02T20:54:35.084Z,82.78
2019-02-02T20:57:05.687Z,85.25
2019-02-02T20:59:36.156Z,105.27
2019-02-02T21:02:06.678Z,98.97
2019-02-02T21:04:36.981Z,93.78
2019-02-02T21:07:07.338Z,95.60
2019-02-02T21:09:37.783Z,100.07
2019-02-02T21:12:08.298Z,101.82
2019-02-02T21:14:38.668Z,87.55
2019-02-02T21:17:09.605Z,83.42
2019-02-02T21:19:39.981Z,78.37
2019-02-02T21:22:10.498Z,85.62
2019-02-02T21:24:40.847Z,76.70
2019-02-02T21:27:11.206Z,78.87
2019-02-02T21:29:41.841Z,75.28
2019-02-02T21:32:12.192Z,72.65
2019-02-02T21:34:42.689Z,73.72
2019-02-02T21:37:13.806Z,71.15
2019-02-02T21:39:44.318Z,63.30
2019-02-02T21:42:15.000Z,63.30
2019-02-02T21:44:45.347Z,66.05
2019-02-02T21:47:15.712Z,62.45
2019-02-02T21:49:46.128Z,61.88
2019-02-02T21:52:17.713Z,59.77
2019-02-02T21:54:48.895Z,62.90
2019-02-02T21:57:21.124Z,61.23
2019-02-02T21:59:52.819Z,58.73
2019-02-02T22:02:23.899Z,56.70
2019-02-02T22:04:54.390Z,52.05
2019-02-02T22:07:24.795Z,56.75
2019-02-02T22:09:55.234Z,54.75
2019-02-02T22:12:25.571Z,51.80
2019-02-02T22:14:55.978Z,50.85
2019-02-02T22:17:26.359Z,50.85
2019-02-02T22:19:56.800Z,49.95
2019-02-02T22:22:27.218Z,53.48
2019-02-02T22:24:57.590Z,50.75
2019-02-02T22:27:28.370Z,57.65
2019-02-02T22:29:59.091Z,54.83
2019-02-02T22:32:30.362Z,56.70
2019-02-02T22:35:00.781Z,56.25
2019-02-02T22:37:31.150Z,54.38
2019-02-02T22:40:01.562Z,53.48
2019-02-02T22:42:32.454Z,55.88
2019-02-02T22:45:02.963Z,57.05
2019-02-02T22:47:33.339Z,59.20
2019-02-02T22:50:05.709Z,57.78
2019-02-02T22:52:36.130Z,52.67
2019-02-02T22:55:08.121Z,53.58
2019-02-02T22:57:38.446Z,51.58
2019-02-02T23:01:01.770Z,51.77
2019-02-02T23:03:55.912Z,54.75
2019-02-02T23:07:07.817Z,53.15
2019-02-02T23:10:04.331Z,53.10
2019-02-02T23:12:45.566Z,56.05
2019-02-02T23:15:44.995Z,61.73
2019-02-02T23:18:15.412Z,52.40
2019-02-02T23:20:46.154Z,51.18
2019-02-02T23:23:16.510Z,51.63
2019-02-02T23:25:47.287Z,52.00
2019-02-02T23:28:17.696Z,50.43
2019-02-02T23:30:48.043Z,49.38
2019-02-02T23:33:18.543Z,50.10
2019-02-02T23:35:48.908Z,50.12
2019-02-02T23:38:19.522Z,47.95
2019-02-02T23:40:49.931Z,43.00
2019-02-02T23:43:21.167Z,48.73
2019-02-02T23:45:51.530Z,46.50
2019-02-02T23:48:21.924Z,40.80
2019-02-02T23:50:52.402Z,40.40
2019-02-02T23:53:22.767Z,43.33
2019-02-02T23:55:53.450Z,45.12
2019-02-02T23:58:23.710Z,49.67
